| time (UTC) | temp F | wind direction | speed MPH | gust MPH | rain 1hr in | rain 24hr in | rain mn in | humidity % | barometer mb |
| 20260507012601 | 64 | 134 | 0.0 | 0.0 | 0.00 | 2.40 | 2.40 | 96 | 1011.9 |
| 20260507012056 | 64 | 134 | 0.0 | 0.0 | 0.00 | 2.40 | 2.40 | 96 | 1011.7 |
| 20260507011559 | 64 | 134 | 0.0 | 0.0 | 0.01 | 2.40 | 2.40 | 96 | 1011.4 |
| 20260507011056 | 64 | 134 | 0.0 | 0.0 | 0.06 | 2.40 | 2.40 | 96 | 1011.5 |
| 20260507010557 | 64 | 134 | 0.0 | 0.0 | 0.07 | 2.40 | 2.40 | 96 | 1011.3 |
| 20260507010056 | 64 | 134 | 0.0 | 0.0 | 0.07 | 2.40 | 2.40 | 96 | 1011.2 |
| 20260507005555 | 64 | 134 | 0.0 | 0.0 | 0.07 | 2.40 | 2.40 | 96 | 1011.1 |
| 20260507005054 | 64 | 134 | 0.0 | 0.0 | 0.07 | 2.40 | 2.40 | 96 | 1011.1 |
| 20260507004555 | 64 | 134 | 0.0 | 0.0 | 0.07 | 2.40 | 2.40 | 96 | 1011.4 |
| 20260507004057 | 64 | 134 | 0.0 | 0.0 | 0.07 | 2.40 | 2.40 | 96 | 1011.4 |
| 20260507003555 | 64 | 134 | 0.0 | 1.0 | 0.08 | 2.40 | 2.40 | 96 | 1011.3 |
| 20260507003055 | 64 | 134 | 0.0 | 1.0 | 0.09 | 2.40 | 2.40 | 96 | 1011.4 |
| 20260507002555 | 64 | 134 | 0.0 | 3.0 | 0.10 | 2.40 | 2.40 | 96 | 1011.1 |
| 20260507002054 | 64 | 134 | 0.0 | 3.0 | 0.12 | 2.40 | 2.40 | 96 | 1010.0 |
| 20260507001600 | 64 | 110 | 1.0 | 6.0 | 0.15 | 2.39 | 2.39 | 96 | 1009.9 |
| 20260507001054 | 64 | 100 | 2.0 | 6.0 | 0.10 | 2.34 | 2.34 | 96 | 1011.8 |
| 20260507000555 | 64 | 76 | 0.0 | 0.0 | 0.10 | 2.33 | 2.33 | 96 | 1012.5 |
| 20260507000055 | 64 | 76 | 0.0 | 0.0 | 0.10 | 2.33 | 2.33 | 96 | 1012.1 |
| 20260506235557 | 64 | 76 | 0.0 | 1.0 | 0.13 | 2.33 | 2.33 | 96 | 1011.7 |
| 20260506235053 | 64 | 76 | 0.0 | 2.0 | 0.13 | 2.33 | 2.33 | 96 | 1011.4 |
| 20260506234616 | 64 | 22 | 0.0 | 2.0 | 0.14 | 2.33 | 2.33 | 96 | 1011.2 |
| 20260506234053 | 64 | 22 | 0.0 | 1.0 | 0.16 | 2.33 | 2.33 | 96 | 1011.5 |
| 20260506233553 | 64 | 22 | 0.0 | 2.0 | 0.21 | 2.31 | 2.31 | 96 | 1011.3 |
| 20260506233053 | 64 | 22 | 0.0 | 2.0 | 0.24 | 2.31 | 2.31 | 96 | 1011.6 |
| 20260506232556 | 64 | 22 | 0.0 | 1.0 | 0.27 | 2.29 | 2.29 | 96 | 1012.0 |
| 20260506232052 | 64 | 21 | 0.0 | 2.0 | 0.30 | 2.27 | 2.27 | 96 | 1011.8 |
| 20260506231555 | 64 | 332 | 0.0 | 2.0 | 0.28 | 2.24 | 2.24 | 96 | 1011.8 |
| 20260506231056 | 65 | 331 | 0.0 | 2.0 | 0.36 | 2.24 | 2.24 | 96 | 1011.2 |
| 20260506230555 | 65 | 64 | 0.0 | 2.0 | 0.43 | 2.23 | 2.23 | 96 | 1010.6 |
| 20260506230056 | 65 | 64 | 0.0 | 2.0 | 0.43 | 2.23 | 2.23 | 96 | 1010.8 |
| 20260506225555 | 65 | 77 | 1.0 | 2.0 | 0.44 | 2.20 | 2.20 | 96 | 1010.7 |
| 20260506225052 | 65 | 86 | 0.0 | 3.0 | 0.45 | 2.20 | 2.20 | 96 | 1011.1 |
| 20260506224552 | 65 | 103 | 1.0 | 3.0 | 0.45 | 2.19 | 2.19 | 96 | 1010.6 |
| 20260506224051 | 65 | 97 | 1.0 | 3.0 | 0.42 | 2.16 | 2.16 | 96 | 1010.7 |
| 20260506223555 | 65 | 105 | 0.0 | 1.0 | 0.38 | 2.11 | 2.11 | 96 | 1011.0 |
| 20260506223058 | 65 | 105 | 0.0 | 1.0 | 0.34 | 2.06 | 2.06 | 96 | 1010.8 |
| 20260506222551 | 65 | 99 | 0.0 | 0.0 | 0.30 | 2.02 | 2.02 | 96 | 1010.6 |
| 20260506222051 | 65 | 99 | 0.0 | 1.0 | 0.27 | 1.98 | 1.98 | 96 | 1011.1 |
| 20260506221554 | 66 | 99 | 0.0 | 1.0 | 0.28 | 1.95 | 1.95 | 96 | 1010.8 |
| 20260506221052 | 66 | 86 | 0.0 | 1.0 | 0.22 | 1.88 | 1.88 | 96 | 1010.7 |
| 20260506220550 | 66 | 76 | 0.0 | 2.0 | 0.18 | 1.80 | 1.80 | 96 | 1010.7 |
| 20260506220051 | 66 | 76 | 1.0 | 2.0 | 0.19 | 1.80 | 1.80 | 96 | 1010.4 |
| 20260506215549 | 66 | 76 | 0.0 | 0.0 | 0.15 | 1.76 | 1.76 | 96 | 1010.6 |
| 20260506215051 | 66 | 76 | 0.0 | 0.0 | 0.14 | 1.75 | 1.75 | 96 | 1010.4 |
| 20260506214550 | 66 | 76 | 0.0 | 1.0 | 0.13 | 1.74 | 1.74 | 96 | 1010.2 |
| 20260506214050 | 66 | 76 | 0.0 | 2.0 | 0.13 | 1.74 | 1.74 | 96 | 1010.2 |
| 20260506213651 | 66 | 76 | 0.0 | 2.0 | 0.12 | 1.73 | 1.73 | 96 | 1009.8 |
| 20260506213049 | 66 | 259 | 0.0 | 1.0 | 0.13 | 1.73 | 1.73 | 96 | 1010.1 |
| 20260506212549 | 66 | 271 | 0.0 | 1.0 | 0.20 | 1.73 | 1.73 | 96 | 1010.2 |
| 20260506212049 | 66 | 271 | 0.0 | 1.0 | 0.19 | 1.71 | 1.71 | 96 | 1010.4 |
| 20260506211549 | 66 | 271 | 0.0 | 1.0 | 0.17 | 1.67 | 1.67 | 96 | 1011.1 |
| 20260506211049 | 66 | 271 | 0.0 | 2.0 | 0.16 | 1.66 | 1.66 | 96 | 1010.9 |
| 20260506210551 | 66 | 271 | 0.0 | 2.0 | 0.12 | 1.62 | 1.62 | 96 | 1011.0 |
| 20260506210049 | 66 | 283 | 0.0 | 2.0 | 0.12 | 1.61 | 1.61 | 96 | 1011.0 |
| 20260506205547 | 66 | 307 | 0.0 | 1.0 | 0.12 | 1.61 | 1.61 | 96 | 1010.4 |
| 20260506205047 | 66 | 307 | 0.0 | 2.0 | 0.12 | 1.61 | 1.61 | 96 | 1010.5 |
| 20260506204555 | 67 | 307 | 0.0 | 2.0 | 0.12 | 1.61 | 1.61 | 96 | 1010.7 |
| 20260506204047 | 67 | 233 | 1.0 | 2.0 | 0.12 | 1.61 | 1.61 | 96 | 1010.8 |
| 20260506203547 | 67 | 233 | 0.0 | 2.0 | 0.12 | 1.61 | 1.61 | 96 | 1010.9 |
| 20260506203047 | 67 | 236 | 0.0 | 2.0 | 0.12 | 1.60 | 1.60 | 96 | 1010.9 |
| 20260506202550 | 67 | 236 | 0.0 | 3.0 | 0.05 | 1.53 | 1.53 | 96 | 1011.2 |
| 20260506202049 | 67 | 238 | 1.0 | 3.0 | 0.05 | 1.52 | 1.52 | 96 | 1011.2 |
| 20260506201547 | 67 | 244 | 1.0 | 3.0 | 0.04 | 1.50 | 1.50 | 96 | 1010.9 |
| 20260506201048 | 67 | 244 | 0.0 | 1.0 | 0.05 | 1.50 | 1.50 | 96 | 1010.3 |
| 20260506200549 | 67 | 244 | 0.0 | 2.0 | 0.05 | 1.50 | 1.50 | 96 | 1010.4 |
| 20260506200105 | 68 | 244 | 0.0 | 2.0 | 0.05 | 1.49 | 1.49 | 96 | 1010.8 |
| 20260506195549 | 68 | 234 | 1.0 | 2.0 | 0.06 | 1.49 | 1.49 | 96 | 1010.9 |
| 20260506195045 | 68 | 231 | 0.0 | 2.0 | 0.07 | 1.49 | 1.49 | 96 | 1010.7 |
| 20260506194550 | 68 | 237 | 0.0 | 2.0 | 0.09 | 1.49 | 1.49 | 96 | 1011.0 |
| 20260506194044 | 68 | 259 | 0.0 | 1.0 | 0.11 | 1.49 | 1.49 | 96 | 1010.9 |
| 20260506193545 | 67 | 261 | 0.0 | 1.0 | 0.12 | 1.49 | 1.49 | 96 | 1011.3 |
| 20260506193045 | 67 | 261 | 0.0 | 1.0 | 0.15 | 1.48 | 1.48 | 96 | 1011.4 |
| 20260506192544 | 67 | 261 | 0.0 | 1.0 | 0.20 | 1.48 | 1.48 | 96 | 1011.5 |
| 20260506192048 | 67 | 261 | 0.0 | 1.0 | 0.21 | 1.47 | 1.47 | 95 | 1011.2 |
| 20260506191545 | 67 | 261 | 0.0 | 1.0 | 0.21 | 1.46 | 1.46 | 95 | 1011.0 |
| 20260506191045 | 67 | 261 | 0.0 | 1.0 | 0.22 | 1.45 | 1.45 | 95 | 1010.8 |
| 20260506190545 | 67 | 277 | 0.0 | 1.0 | 0.22 | 1.45 | 1.45 | 95 | 1010.9 |
| 20260506190045 | 67 | 277 | 0.0 | 2.0 | 0.22 | 1.44 | 1.44 | 95 | 1011.0 |
| 20260506185544 | 67 | 101 | 0.0 | 3.0 | 0.21 | 1.43 | 1.43 | 95 | 1010.8 |
| 20260506185047 | 67 | 86 | 0.0 | 2.0 | 0.20 | 1.42 | 1.42 | 94 | 1011.0 |
| 20260506184544 | 67 | 86 | 1.0 | 2.0 | 0.18 | 1.40 | 1.40 | 94 | 1011.4 |
| 20260506184043 | 68 | 96 | 0.0 | 2.0 | 0.16 | 1.38 | 1.38 | 94 | 1012.0 |
| 20260506183543 | 68 | 96 | 1.0 | 3.0 | 0.14 | 1.36 | 1.36 | 94 | 1011.7 |
| 20260506183058 | 68 | 132 | 0.0 | 3.0 | 0.11 | 1.33 | 1.33 | 94 | 1011.8 |
| 20260506182543 | 68 | 109 | 0.0 | 2.0 | 0.05 | 1.27 | 1.27 | 94 | 1012.1 |
| 20260506182043 | 68 | 253 | 0.0 | 2.0 | 0.03 | 1.25 | 1.25 | 93 | 1012.5 |
| 20260506181549 | 68 | 253 | 0.0 | 2.0 | 0.03 | 1.25 | 1.25 | 93 | 1012.3 |
| 20260506181043 | 68 | 253 | 0.0 | 2.0 | 0.01 | 1.23 | 1.23 | 92 | 1012.2 |
| 20260506180545 | 68 | 253 | 1.0 | 3.0 | 0.01 | 1.23 | 1.23 | 92 | 1012.3 |
| 20260506180042 | 69 | 253 | 1.0 | 3.0 | 0.00 | 1.22 | 1.22 | 92 | 1012.2 |
| 20260506175544 | 69 | 281 | 0.0 | 3.0 | 0.00 | 1.22 | 1.22 | 92 | 1012.2 |
| 20260506175041 | 69 | 257 | 0.0 | 2.0 | 0.00 | 1.22 | 1.22 | 91 | 1012.1 |
| 20260506174541 | 69 | 257 | 0.0 | 2.0 | 0.00 | 1.22 | 1.22 | 91 | 1012.1 |
| 20260506174042 | 69 | 318 | 0.0 | 3.0 | 0.00 | 1.22 | 1.22 | 91 | 1012.1 |
| 20260506173541 | 69 | 223 | 1.0 | 3.0 | 0.00 | 1.22 | 1.22 | 91 | 1012.0 |
| 20260506173052 | 69 | 165 | 0.0 | 2.0 | 0.00 | 1.22 | 1.22 | 91 | 1011.5 |
| 20260506172543 | 69 | 233 | 0.0 | 3.0 | 0.00 | 1.22 | 1.22 | 91 | 1011.7 |
| 20260506172042 | 69 | 233 | 1.0 | 3.0 | 0.00 | 1.22 | 1.22 | 91 | 1011.8 |
| 20260506171545 | 69 | 223 | 0.0 | 3.0 | 0.00 | 1.22 | 1.22 | 91 | 1011.9 |
| 20260506171041 | 69 | 258 | 0.0 | 5.0 | 0.00 | 1.22 | 1.22 | 90 | 1011.7 |
| 20260506170541 | 69 | 55 | 0.0 | 5.0 | 0.00 | 1.22 | 1.22 | 91 | 1011.5 |
| 20260506170046 | 69 | 227 | 0.0 | 3.0 | 0.00 | 1.22 | 1.22 | 91 | 1011.4 |
| 20260506165540 | 70 | 239 | 1.0 | 3.0 | 0.00 | 1.22 | 1.22 | 92 | 1011.5 |
| 20260506165040 | 70 | 189 | 0.0 | 5.0 | 0.00 | 1.22 | 1.22 | 91 | 1011.6 |
| 20260506164547 | 70 | 161 | 0.0 | 5.0 | 0.00 | 1.22 | 1.22 | 93 | 1011.3 |
| 20260506164039 | 69 | 212 | 0.0 | 3.0 | 0.00 | 1.22 | 1.22 | 93 | 1011.5 |
| 20260506163538 | 69 | 232 | 2.0 | 3.0 | 0.00 | 1.22 | 1.22 | 93 | 1011.2 |
| 20260506163040 | 69 | 153 | 0.0 | 2.0 | 0.00 | 1.22 | 1.22 | 93 | 1011.2 |
| 20260506162538 | 69 | 185 | 0.0 | 3.0 | 0.00 | 1.22 | 1.22 | 93 | 1011.3 |
| 20260506162040 | 69 | 80 | 0.0 | 4.0 | 0.00 | 1.22 | 1.22 | 93 | 1011.3 |
| 20260506161545 | 69 | 228 | 1.0 | 4.0 | 0.00 | 1.22 | 1.22 | 94 | 1011.4 |
| 20260506161038 | 68 | 219 | 1.0 | 4.0 | 0.00 | 1.22 | 1.22 | 93 | 1011.4 |
| 20260506160537 | 68 | 60 | 1.0 | 4.0 | 0.00 | 1.22 | 1.22 | 95 | 1011.3 |
| 20260506160044 | 67 | 262 | 0.0 | 4.0 | 0.00 | 1.22 | 1.22 | 95 | 1011.3 |
| 20260506155536 | 67 | 207 | 0.0 | 2.0 | 0.01 | 1.22 | 1.22 | 96 | 1011.2 |
| 20260506155036 | 66 | 205 | 0.0 | 4.0 | 0.02 | 1.22 | 1.22 | 95 | 1010.9 |
| 20260506154536 | 66 | 160 | 0.0 | 4.0 | 0.03 | 1.22 | 1.22 | 96 | 1011.0 |
| 20260506154036 | 66 | 113 | 0.0 | 3.0 | 0.05 | 1.22 | 1.22 | 95 | 1011.2 |
| 20260506153535 | 66 | 232 | 0.0 | 1.0 | 0.07 | 1.22 | 1.22 | 96 | 1011.6 |
| 20260506153035 | 65 | 232 | 0.0 | 1.0 | 0.10 | 1.22 | 1.22 | 95 | 1011.9 |
| 20260506152536 | 65 | 232 | 0.0 | 3.0 | 0.13 | 1.22 | 1.22 | 95 | 1012.2 |
| 20260506152038 | 65 | 248 | 0.0 | 3.0 | 0.22 | 1.22 | 1.22 | 96 | 1012.1 |
| 20260506151545 | 65 | 225 | 0.0 | 2.0 | 0.31 | 1.22 | 1.22 | 95 | 1012.3 |
| 20260506151034 | 65 | 138 | 0.0 | 3.0 | 0.34 | 1.22 | 1.22 | 95 | 1012.0 |
| 20260506150534 | 64 | 93 | 0.0 | 6.0 | 0.41 | 1.22 | 1.22 | 95 | 1011.4 |
| 20260506150034 | 64 | 90 | 3.0 | 6.0 | 0.45 | 1.22 | 1.22 | 94 | 1010.9 |
| 20260506145533 | 64 | 87 | 2.0 | 5.0 | 0.47 | 1.21 | 1.21 | 94 | 1011.5 |
| 20260506145032 | 64 | 88 | 1.0 | 4.0 | 0.48 | 1.20 | 1.20 | 94 | 1012.4 |
| 20260506144532 | 64 | 100 | 1.0 | 4.0 | 0.49 | 1.19 | 1.19 | 94 | 1012.8 |
| 20260506144041 | 64 | 80 | 0.0 | 2.0 | 0.48 | 1.17 | 1.17 | 94 | 1013.2 |
| 20260506143532 | 64 | 88 | 0.0 | 2.0 | 0.48 | 1.14 | 1.14 | 94 | 1013.1 |
| 20260506143042 | 64 | 98 | 0.0 | 3.0 | 0.48 | 1.11 | 1.11 | 94 | 1013.2 |
| 20260506142531 | 64 | 98 | 2.0 | 3.0 | 0.50 | 1.09 | 1.09 | 94 | 1013.0 |
| 20260506142031 | 64 | 110 | 0.0 | 2.0 | 0.41 | 0.98 | 0.98 | 93 | 1013.4 |
| 20260506141531 | 64 | 126 | 0.0 | 1.0 | 0.34 | 0.91 | 0.91 | 93 | 1013.2 |
| 20260506141031 | 64 | 130 | 0.0 | 1.0 | 0.32 | 0.87 | 0.87 | 93 | 1013.3 |
| 20260506140529 | 64 | 131 | 0.0 | 1.0 | 0.30 | 0.81 | 0.81 | 93 | 1013.6 |
| 20260506140035 | 64 | 131 | 0.0 | 1.0 | 0.28 | 0.76 | 0.76 | 93 | 1013.2 |
| 20260506135531 | 64 | 131 | 0.0 | 1.0 | 0.48 | 0.73 | 0.73 | 92 | 1013.0 |
| 20260506135027 | 64 | 131 | 0.0 | 1.0 | 0.67 | 0.71 | 0.71 | 92 | 1013.1 |
| 20260506134528 | 64 | 131 | 0.0 | 1.0 | 0.67 | 0.70 | 0.70 | 92 | 1013.0 |
| 20260506134026 | 64 | 131 | 0.0 | 1.0 | 0.66 | 0.68 | 0.68 | 92 | 1012.8 |
| 20260506133524 | 64 | 131 | 0.0 | 0.0 | 0.64 | 0.66 | 0.66 | 91 | 1012.6 |
| 20260506133026 | 64 | 131 | 0.0 | 0.0 | 0.62 | 0.63 | 0.63 | 91 | 1012.6 |
| 20260506132524 | 64 | 131 | 0.0 | 0.0 | 0.57 | 0.59 | 0.59 | 91 | 1012.6 |
| 20260506132022 | 64 | 131 | 0.0 | 0.0 | 0.56 | 0.56 | 0.56 | 91 | 1012.3 |
| 20260506131527 | 65 | 131 | 0.0 | 0.0 | 0.55 | 0.56 | 0.56 | 91 | 1012.2 |
| 20260506131022 | 65 | 131 | 0.0 | 0.0 | 0.54 | 0.55 | 0.55 | 90 | 1011.9 |
| 20260506130523 | 65 | 131 | 0.0 | 1.0 | 0.50 | 0.51 | 0.51 | 90 | 1012.0 |
| 20260506130019 | 65 | 125 | 0.0 | 1.0 | 0.46 | 0.47 | 0.47 | 89 | 1011.8 |
| 20260506125518 | 65 | 123 | 0.0 | 1.0 | 0.23 | 0.24 | 0.24 | 89 | 1011.6 |
| 20260506125019 | 65 | 91 | 0.0 | 0.0 | 0.03 | 0.04 | 0.04 | 89 | 1011.6 |
| 20260506124515 | 65 | 91 | 0.0 | 1.0 | 0.02 | 0.03 | 0.03 | 88 | 1011.2 |
| 20260506124015 | 65 | 91 | 0.0 | 1.0 | 0.01 | 0.02 | 0.02 | 88 | 1011.4 |
| 20260506123514 | 65 | 91 | 0.0 | 0.0 | 0.01 | 0.01 | 0.01 | 87 | 1011.1 |
| 20260506123014 | 65 | 91 | 0.0 | 0.0 | 0.01 | 0.01 | 0.01 | 87 | 1011.0 |
| 20260506122514 | 65 | 91 | 0.0 | 0.0 | 0.01 | 0.01 | 0.01 | 87 | 1010.9 |
| 20260506122013 | 65 | 91 | 0.0 | 1.0 | 0.01 | 0.01 | 0.01 | 87 | 1011.0 |
| 20260506121512 | 65 | 91 | 0.0 | 1.0 | 0.01 | 0.01 | 0.01 | 87 | 1011.0 |
| 20260506121012 | 65 | 91 | 0.0 | 0.0 | 0.01 | 0.01 | 0.01 | 87 | 1010.9 |
| 20260506120515 | 65 | 91 | 0.0 | 0.0 | 0.01 | 0.01 | 0.01 | 87 | 1010.8 |
| 20260506120011 | 65 | 91 | 0.0 | 0.0 | 0.01 | 0.01 | 0.01 | 86 | 1010.7 |
| 20260506115511 | 65 | 91 | 0.0 | 2.0 | 0.01 | 0.01 | 0.01 | 86 | 1010.6 |
| 20260506115010 | 66 | 91 | 0.0 | 2.0 | 0.01 | 0.01 | 0.01 | 86 | 1010.4 |
| 20260506114509 | 66 | 10 | 0.0 | 0.0 | 0.01 | 0.01 | 0.01 | 86 | 1010.9 |
| 20260506114008 | 66 | 10 | 0.0 | 1.0 | 0.01 | 0.01 | 0.01 | 86 | 1010.7 |
| 20260506113512 | 66 | 109 | 0.0 | 2.0 | 0.00 | 0.00 | 0.00 | 86 | 1010.5 |
| 20260506113008 | 66 | 103 | 0.0 | 2.0 | 0.00 | 0.00 | 0.00 | 86 | 1010.4 |
| 20260506112508 | 66 | 136 | 0.0 | 2.0 | 0.00 | 0.00 | 0.00 | 86 | 1010.2 |
| 20260506112007 | 66 | 160 | 0.0 | 1.0 | 0.00 | 0.00 | 0.00 | 86 | 1010.6 |
| 20260506111509 | 66 | 137 | 0.0 | 1.0 | 0.00 | 0.00 | 0.00 | 85 | 1010.7 |
| 20260506111006 | 66 | 137 | 0.0 | 1.0 | 0.00 | 0.00 | 0.00 | 84 | 1010.7 |
| 20260506110511 | 66 | 137 | 0.0 | 1.0 | 0.00 | 0.00 | 0.00 | 84 | 1010.5 |
| 20260506110007 | 66 | 137 | 0.0 | 1.0 | 0.00 | 0.00 | 0.00 | 82 | 1010.2 |
| 20260506105503 | 67 | 137 | 0.0 | 2.0 | 0.00 | 0.00 | 0.00 | 81 | 1010.2 |
| 20260506105005 | 67 | 140 | 0.0 | 2.0 | 0.00 | 0.00 | 0.00 | 81 | 1010.2 |
| 20260506104502 | 67 | 138 | 0.0 | 1.0 | 0.00 | 0.00 | 0.00 | 81 | 1010.2 |
| 20260506104002 | 67 | 138 | 0.0 | 1.0 | 0.00 | 0.00 | 0.00 | 81 | 1010.1 |
| 20260506103502 | 67 | 138 | 0.0 | 1.0 | 0.00 | 0.00 | 0.00 | 80 | 1009.7 |
| 20260506103100 | 67 | 138 | 0.0 | 1.0 | 0.00 | 0.00 | 0.00 | 80 | 1009.7 |
| 20260506102600 | 67 | 138 | 0.0 | 2.0 | 0.00 | 0.00 | 0.00 | 79 | 1009.6 |
| 20260506102100 | 67 | 138 | 0.0 | 2.0 | 0.00 | 0.00 | 0.00 | 79 | 1009.6 |
| 20260506101605 | 67 | 243 | 0.0 | 1.0 | 0.00 | 0.00 | 0.00 | 78 | 1009.9 |
| 20260506101100 | 67 | 243 | 0.0 | 2.0 | 0.00 | 0.00 | 0.00 | 78 | 1009.8 |
| 20260506100559 | 67 | 237 | 0.0 | 2.0 | 0.00 | 0.00 | 0.00 | 77 | 1010.0 |
| 20260506100058 | 67 | 246 | 0.0 | 2.0 | 0.00 | 0.00 | 0.00 | 77 | 1009.8 |
| 20260506095559 | 68 | 227 | 0.0 | 2.0 | 0.00 | 0.00 | 0.00 | 77 | 1009.3 |
| 20260506095058 | 68 | 202 | 0.0 | 3.0 | 0.00 | 0.00 | 0.00 | 76 | 1009.3 |
| 20260506094600 | 68 | 207 | 0.0 | 3.0 | 0.00 | 0.00 | 0.00 | 76 | 1009.2 |
| 20260506094057 | 68 | 192 | 0.0 | 3.0 | 0.00 | 0.00 | 0.00 | 76 | 1009.3 |
| 20260506093556 | 68 | 224 | 0.0 | 3.0 | 0.00 | 0.00 | 0.00 | 75 | 1009.6 |
| 20260506093104 | 68 | 217 | 0.0 | 2.0 | 0.00 | 0.00 | 0.00 | 75 | 1009.6 |
| 20260506092556 | 68 | 219 | 0.0 | 2.0 | 0.00 | 0.00 | 0.00 | 75 | 1009.5 |
| 20260506092056 | 68 | 219 | 1.0 | 3.0 | 0.00 | 0.00 | 0.00 | 74 | 1009.5 |
| 20260506091556 | 68 | 196 | 1.0 | 3.0 | 0.00 | 0.00 | 0.00 | 74 | 1009.7 |
| 20260506091056 | 68 | 218 | 0.0 | 2.0 | 0.00 | 0.00 | 0.00 | 74 | 1009.7 |
| 20260506090602 | 68 | 230 | 1.0 | 3.0 | 0.00 | 0.00 | 0.00 | 74 | 1009.7 |
| 20260506090100 | 68 | 230 | 1.0 | 3.0 | 0.00 | 0.00 | 0.00 | 73 | 1009.7 |
| 20260506085554 | 68 | 215 | 1.0 | 3.0 | 0.00 | 0.00 | 0.00 | 73 | 1009.6 |
| 20260506085055 | 68 | 227 | 0.0 | 3.0 | 0.00 | 0.00 | 0.00 | 73 | 1009.4 |
| 20260506084554 | 68 | 215 | 1.0 | 3.0 | 0.00 | 0.00 | 0.00 | 73 | 1009.4 |
| 20260506084054 | 68 | 231 | 1.0 | 3.0 | 0.00 | 0.00 | 0.00 | 73 | 1009.3 |
| 20260506083554 | 68 | 229 | 1.0 | 3.0 | 0.00 | 0.00 | 0.00 | 73 | 1009.0 |
| 20260506083055 | 68 | 239 | 1.0 | 3.0 | 0.00 | 0.00 | 0.00 | 73 | 1009.1 |
| 20260506082558 | 68 | 239 | 1.0 | 3.0 | 0.00 | 0.00 | 0.00 | 73 | 1009.1 |
| 20260506082055 | 68 | 246 | 0.0 | 2.0 | 0.00 | 0.00 | 0.00 | 73 | 1008.9 |
| 20260506081553 | 68 | 218 | 0.0 | 3.0 | 0.00 | 0.00 | 0.00 | 73 | 1009.0 |
| 20260506081053 | 68 | 223 | 0.0 | 3.0 | 0.00 | 0.00 | 0.00 | 73 | 1009.1 |
| 20260506080553 | 68 | 194 | 0.0 | 2.0 | 0.00 | 0.00 | 0.00 | 73 | 1009.0 |
| 20260506073050 | 68 | 112 | 0.0 | 1.0 | 0.00 | 0.00 | 0.00 | 70 | 1009.0 |
| 20260506072551 | 68 | 112 | 0.0 | 1.0 | 0.00 | 0.00 | 0.00 | 70 | 1009.1 |
| 20260506072052 | 68 | 112 | 0.0 | 1.0 | 0.00 | 0.00 | 0.00 | 70 | 1009.1 |
| 20260506071604 | 68 | 85 | 0.0 | 3.0 | 0.00 | 0.00 | 0.00 | 71 | 1009.0 |
| 20260506071052 | 68 | 271 | 0.0 | 1.0 | 0.00 | 0.00 | 0.00 | 70 | 1009.1 |
| 20260506070548 | 68 | 271 | 0.0 | 1.0 | 0.00 | 0.00 | 0.00 | 70 | 1009.2 |
| 20260506062040 | 68 | 165 | 0.0 | 0.0 | 0.00 | 0.00 | 0.00 | 65 | 1009.8 |
| 20260506061540 | 68 | 140 | 0.0 | 0.0 | 0.00 | 0.00 | 0.00 | 65 | 1009.9 |
| 20260506061040 | 68 | 168 | 0.0 | 0.0 | 0.00 | 0.00 | 0.00 | 65 | 1009.9 |
| 20260506060538 | 68 | 199 | 0.0 | 0.0 | 0.00 | 0.00 | 0.00 | 65 | 1010.1 |
| 20260506051033 | 69 | 355 | 0.0 | 2.0 | 0.00 | 0.00 | 0.00 | 63 | 1010.4 |
| 20260506050534 | 69 | 355 | 0.0 | 2.0 | 0.00 | 0.00 | 0.00 | 63 | 1010.3 |
| 20260506045031 | 69 | 180 | 0.0 | 1.0 | 0.00 | 0.00 | 0.00 | 63 | 1010.4 |
| 20260506044534 | 69 | 101 | 0.0 | 1.0 | 0.00 | 0.00 | 0.00 | 64 | 1010.4 |
| 20260506044031 | 69 | 101 | 0.0 | 1.0 | 0.00 | 0.00 | 0.00 | 64 | 1010.4 |
| 20260506043532 | 69 | 101 | 0.0 | 1.0 | 0.00 | 0.00 | 0.00 | 63 | 1010.4 |
| 20260506043030 | 69 | 101 | 0.0 | 1.0 | 0.00 | 0.00 | 0.00 | 62 | 1010.4 |
| 20260506042530 | 69 | 101 | 0.0 | 0.0 | 0.00 | 0.00 | 0.00 | 62 | 1010.4 |
| 20260506042033 | 69 | 101 | 0.0 | 0.0 | 0.00 | 0.00 | 0.00 | 63 | 1010.3 |
| 20260506041532 | 69 | 101 | 0.0 | 0.0 | 0.00 | 0.00 | 0.00 | 62 | 1010.4 |
| 20260506041028 | 69 | 101 | 0.0 | 1.0 | 0.00 | 0.00 | 0.00 | 61 | 1010.4 |
| 20260506040527 | 70 | 101 | 0.0 | 1.0 | 0.00 | 0.00 | 0.00 | 62 | 1010.4 |
| 20260506040029 | 70 | 101 | 0.0 | 1.0 | 0.00 | 0.00 | 0.00 | 61 | 1010.5 |
| 20260506035526 | 70 | 101 | 0.0 | 1.0 | 0.00 | 0.00 | 0.00 | 61 | 1010.5 |
| 20260506035029 | 69 | 101 | 0.0 | 1.0 | 0.00 | 0.00 | 0.00 | 62 | 1010.5 |
| 20260506034527 | 69 | 101 | 0.0 | 0.0 | 0.00 | 0.00 | 0.00 | 61 | 1010.5 |
| 20260506034028 | 69 | 101 | 0.0 | 0.0 | 0.00 | 0.00 | 0.00 | 64 | 1010.6 |
| 20260506033526 | 69 | 101 | 0.0 | 0.0 | 0.00 | 0.00 | 0.00 | 62 | 1010.8 |
| 20260506033030 | 70 | 101 | 0.0 | 0.0 | 0.00 | 0.00 | 0.00 | 61 | 1010.8 |
| 20260506032525 | 70 | 101 | 0.0 | 0.0 | 0.00 | 0.00 | 0.00 | 60 | 1010.7 |
| 20260506032025 | 70 | 101 | 0.0 | 0.0 | 0.00 | 0.00 | 0.00 | 60 | 1010.7 |
| 20260506031527 | 70 | 101 | 0.0 | 1.0 | 0.00 | 0.00 | 0.00 | 60 | 1010.7 |
| 20260506031027 | 70 | 101 | 0.0 | 2.0 | 0.00 | 0.00 | 0.00 | 60 | 1010.7 |
| 20260506030525 | 70 | 119 | 0.0 | 2.0 | 0.00 | 0.00 | 0.00 | 60 | 1010.7 |
| 20260506030031 | 70 | 190 | 0.0 | 0.0 | 0.00 | 0.00 | 0.00 | 62 | 1011.1 |
| 20260506025525 | 70 | 190 | 0.0 | 2.0 | 0.00 | 0.00 | 0.00 | 61 | 1011.1 |
| 20260506025024 | 71 | 227 | 0.0 | 2.0 | 0.00 | 0.00 | 0.00 | 58 | 1011.3 |
| 20260506024524 | 71 | 227 | 0.0 | 2.0 | 0.00 | 0.00 | 0.00 | 58 | 1011.2 |
| 20260506024024 | 71 | 228 | 0.0 | 2.0 | 0.00 | 0.00 | 0.00 | 58 | 1011.1 |
| 20260506023524 | 70 | 227 | 1.0 | 2.0 | 0.00 | 0.00 | 0.00 | 58 | 1011.0 |
| 20260506023024 | 70 | 227 | 0.0 | 2.0 | 0.00 | 0.00 | 0.00 | 59 | 1010.8 |
| 20260506022523 | 70 | 227 | 0.0 | 1.0 | 0.00 | 0.00 | 0.00 | 61 | 1010.6 |
| 20260506022023 | 70 | 225 | 0.0 | 3.0 | 0.00 | 0.00 | 0.00 | 60 | 1010.5 |
| 20260506021523 | 71 | 225 | 1.0 | 3.0 | 0.00 | 0.00 | 0.00 | 57 | 1010.5 |
| 20260506021023 | 70 | 211 | 0.0 | 2.0 | 0.00 | 0.00 | 0.00 | 58 | 1010.5 |
| 20260506020522 | 71 | 223 | 0.0 | 2.0 | 0.00 | 0.00 | 0.00 | 57 | 1010.4 |
| 20260506020025 | 71 | 223 | 0.0 | 2.0 | 0.00 | 0.00 | 0.00 | 57 | 1010.4 |
| 20260506015522 | 70 | 223 | 1.0 | 2.0 | 0.00 | 0.00 | 0.00 | 57 | 1010.4 |
| 20260506015024 | 70 | 194 | 0.0 | 2.0 | 0.00 | 0.00 | 0.00 | 57 | 1010.3 |
| 20260506014532 | 70 | 155 | 0.0 | 2.0 | 0.00 | 0.00 | 0.00 | 59 | 1010.1 |
| 20260506014022 | 70 | 217 | 0.0 | 1.0 | 0.00 | 0.00 | 0.00 | 56 | 1010.2 |
| 20260506013521 | 70 | 217 | 0.0 | 2.0 | 0.00 | 0.00 | 0.00 | 57 | 1010.2 |
| 20260506013027 | 70 | 217 | 0.0 | 2.0 | 0.00 | 0.00 | 0.00 | 56 | 1010.1 |